createdAt,value
2023-04-10T00:02:00.486Z,10.78
2023-04-10T00:04:28.440Z,10.61
2023-04-10T00:06:55.467Z,10.50
2023-04-10T00:09:22.028Z,10.68
2023-04-10T00:11:48.526Z,10.78
2023-04-10T00:14:14.947Z,10.78
2023-04-10T00:16:41.569Z,10.90
2023-04-10T00:19:08.145Z,10.86
2023-04-10T00:21:34.591Z,10.78
2023-04-10T00:24:01.069Z,10.88
2023-04-10T00:26:27.555Z,10.98
2023-04-10T00:28:54.001Z,11.21
2023-04-10T00:31:20.588Z,11.11
2023-04-10T00:33:47.258Z,11.28
2023-04-10T00:36:13.863Z,11.01
2023-04-10T00:38:40.472Z,11.32
2023-04-10T00:41:07.140Z,11.39
2023-04-10T00:43:33.756Z,11.57
2023-04-10T00:46:00.780Z,11.39
2023-04-10T00:48:27.776Z,11.66
2023-04-10T00:50:54.437Z,11.25
2023-04-10T00:53:22.021Z,11.45
2023-04-10T00:55:49.590Z,11.42
2023-04-10T00:58:16.232Z,11.71
2023-04-10T01:00:42.699Z,11.69
2023-04-10T01:03:11.239Z,11.73
2023-04-10T01:06:08.563Z,11.75
2023-04-10T01:08:44.263Z,11.31
2023-04-10T01:11:17.600Z,11.58
2023-04-10T01:13:53.152Z,11.43
2023-04-10T01:16:19.743Z,11.20
2023-04-10T01:19:12.332Z,11.02
2023-04-10T01:21:40.810Z,10.90
2023-04-10T01:25:04.521Z,10.63
2023-04-10T01:28:04.634Z,10.81
2023-04-10T01:30:32.927Z,10.92
2023-04-10T01:33:01.966Z,10.94
2023-04-10T01:35:30.532Z,10.83
2023-04-10T01:38:00.497Z,10.71
2023-04-10T01:40:28.782Z,10.71
2023-04-10T01:42:57.108Z,10.65
2023-04-10T01:45:28.912Z,10.65
2023-04-10T01:47:56.292Z,10.76
2023-04-10T01:50:24.444Z,10.66
2023-04-10T01:52:54.624Z,10.63
2023-04-10T01:55:21.949Z,10.63
2023-04-10T01:57:49.255Z,10.28
2023-04-10T02:00:16.734Z,10.27
2023-04-10T02:02:44.220Z,10.20
2023-04-10T02:05:11.096Z,10.16
2023-04-10T02:07:45.434Z,10.16
2023-04-10T02:10:35.870Z,10.23
2023-04-10T02:13:12.117Z,10.38
2023-04-10T02:15:42.450Z,10.13
2023-04-10T02:18:11.049Z,10.13
2023-04-10T02:20:37.741Z,10.35
2023-04-10T02:23:05.376Z,10.35
2023-04-10T02:25:33.321Z,10.32
2023-04-10T02:28:07.477Z,9.98
2023-04-10T02:30:34.612Z,9.90
2023-04-10T02:33:01.163Z,9.87
2023-04-10T02:35:29.251Z,9.80
2023-04-10T02:37:55.920Z,10.07
2023-04-10T02:40:23.570Z,10.00
2023-04-10T02:42:50.081Z,9.94
2023-04-10T02:45:16.595Z,9.94
2023-04-10T02:47:43.033Z,9.73
2023-04-10T02:50:10.092Z,9.61
2023-04-10T02:52:36.608Z,9.57
2023-04-10T02:55:03.218Z,9.57
2023-04-10T02:57:29.700Z,9.48
2023-04-10T02:59:56.124Z,9.90
2023-04-10T03:02:22.780Z,10.00
2023-04-10T03:04:49.372Z,10.12
2023-04-10T03:07:17.044Z,10.19
2023-04-10T03:09:45.401Z,10.17
2023-04-10T03:12:11.858Z,10.32
2023-04-10T03:14:38.285Z,10.22
2023-04-10T03:17:04.718Z,10.15
2023-04-10T03:19:31.298Z,10.21
2023-04-10T03:21:57.720Z,10.20
2023-04-10T03:24:24.179Z,10.24
2023-04-10T03:26:51.902Z,10.06
2023-04-10T03:29:19.030Z,10.26
2023-04-10T03:31:46.119Z,10.40
2023-04-10T03:34:12.618Z,10.42
2023-04-10T03:36:39.104Z,10.26
2023-04-10T03:39:05.901Z,9.94
2023-04-10T03:41:32.410Z,10.18
2023-04-10T03:43:58.953Z,10.07
2023-04-10T03:46:25.674Z,9.88
2023-04-10T03:48:53.906Z,9.74
2023-04-10T03:51:20.657Z,9.71
2023-04-10T03:53:47.192Z,9.57
2023-04-10T03:56:13.706Z,9.42
2023-04-10T03:58:40.235Z,9.63
2023-04-10T04:01:07.629Z,9.51
2023-04-10T04:03:34.341Z,9.32
2023-04-10T04:06:01.174Z,9.29
2023-04-10T04:08:27.605Z,9.23
2023-04-10T04:10:54.022Z,9.67
2023-04-10T04:13:20.566Z,9.49
2023-04-10T04:15:47.879Z,9.36
2023-04-10T04:18:14.357Z,9.43
2023-04-10T04:20:41.034Z,9.44
2023-04-10T04:23:07.688Z,9.66
2023-04-10T04:25:34.099Z,9.52
2023-04-10T04:28:01.379Z,9.88
2023-04-10T04:30:27.862Z,9.75
2023-04-10T04:32:54.571Z,9.83
2023-04-10T04:35:21.938Z,9.99
2023-04-10T04:37:48.439Z,9.86
2023-04-10T04:40:14.872Z,9.76
2023-04-10T04:42:41.305Z,9.76
2023-04-10T04:45:08.397Z,9.41
2023-04-10T04:47:34.898Z,9.47
2023-04-10T04:50:01.345Z,9.87
2023-04-10T04:52:28.053Z,9.92
2023-04-10T04:54:54.467Z,9.90
2023-04-10T04:57:21.685Z,9.81
2023-04-10T04:59:48.079Z,10.22
2023-04-10T05:02:14.692Z,10.26
2023-04-10T05:04:42.029Z,9.90
2023-04-10T05:07:11.229Z,9.94
2023-04-10T05:09:37.677Z,10.18
2023-04-10T05:12:04.337Z,10.42
2023-04-10T05:14:30.825Z,10.27
2023-04-10T05:16:57.336Z,10.24
2023-04-10T05:19:23.746Z,10.19
2023-04-10T05:21:50.187Z,10.03
2023-04-10T05:24:16.669Z,10.47
2023-04-10T05:26:43.137Z,10.59
2023-04-10T05:29:09.635Z,10.61
2023-04-10T05:31:36.485Z,10.61
2023-04-10T05:34:02.930Z,11.12
2023-04-10T05:36:29.387Z,11.01
2023-04-10T05:38:56.402Z,11.13
2023-04-10T05:41:22.989Z,11.28
2023-04-10T05:43:49.923Z,11.07
2023-04-10T05:46:16.461Z,11.21
2023-04-10T05:48:42.880Z,11.04
2023-04-10T05:51:09.277Z,11.23
2023-04-10T05:53:35.731Z,11.50
2023-04-10T05:56:02.299Z,11.47
2023-04-10T05:58:29.268Z,12.20
2023-04-10T06:00:56.193Z,12.27
2023-04-10T06:03:23.834Z,13.16
2023-04-10T06:05:50.521Z,13.08
2023-04-10T06:08:16.919Z,13.47
2023-04-10T06:10:43.402Z,13.24
2023-04-10T06:13:11.215Z,13.51
2023-04-10T06:15:38.332Z,13.12
2023-04-10T06:18:04.971Z,13.65
2023-04-10T06:20:31.604Z,13.82
2023-04-10T06:22:59.114Z,13.71
2023-04-10T06:25:25.575Z,13.60
2023-04-10T06:27:53.644Z,13.83
2023-04-10T06:30:20.236Z,13.93
2023-04-10T06:32:46.733Z,14.18
2023-04-10T06:35:13.158Z,13.74
2023-04-10T06:37:39.588Z,14.30
2023-04-10T06:40:07.497Z,14.62
2023-04-10T06:42:34.329Z,15.32
2023-04-10T06:45:00.865Z,14.66
2023-04-10T06:47:27.357Z,14.79
2023-04-10T06:49:53.925Z,14.93
2023-04-10T06:52:20.611Z,14.27
2023-04-10T06:54:47.429Z,14.06
2023-04-10T06:57:14.191Z,13.31
2023-04-10T06:59:40.658Z,14.19
2023-04-10T07:02:07.730Z,14.36
2023-04-10T07:04:34.281Z,14.47
2023-04-10T07:07:01.211Z,14.20
2023-04-10T07:09:28.096Z,13.86
2023-04-10T07:11:54.510Z,14.81
2023-04-10T07:14:21.135Z,14.79
2023-04-10T07:16:48.674Z,14.75
2023-04-10T07:19:15.603Z,14.99
2023-04-10T07:21:41.995Z,15.58
2023-04-10T07:24:08.521Z,15.71
2023-04-10T07:26:35.185Z,15.76
2023-04-10T07:29:02.324Z,16.33
2023-04-10T07:31:28.800Z,16.80
2023-04-10T07:33:55.315Z,16.22
2023-04-10T07:36:21.715Z,15.95
2023-04-10T07:38:48.137Z,16.59
2023-04-10T07:41:14.552Z,16.69
2023-04-10T07:43:41.471Z,16.93
2023-04-10T07:46:07.958Z,16.94
2023-04-10T07:48:34.526Z,17.14
2023-04-10T07:51:01.015Z,17.30
2023-04-10T07:53:27.464Z,17.90
2023-04-10T07:55:53.862Z,17.12
2023-04-10T07:58:20.241Z,17.29
2023-04-10T08:00:46.634Z,17.84
2023-04-10T08:03:13.731Z,17.78
2023-04-10T08:05:40.487Z,18.31
2023-04-10T08:08:06.937Z,17.93
2023-04-10T08:10:33.410Z,17.18
2023-04-10T08:12:59.820Z,17.94
2023-04-10T08:15:26.329Z,18.03
2023-04-10T08:17:53.775Z,18.24
2023-04-10T08:20:20.370Z,18.64
2023-04-10T08:22:46.894Z,18.86
2023-04-10T08:25:13.389Z,19.93
2023-04-10T08:27:39.809Z,20.18
2023-04-10T08:30:07.050Z,20.36
2023-04-10T08:32:33.526Z,19.90
2023-04-10T08:34:59.928Z,18.38
2023-04-10T08:37:26.920Z,19.52
2023-04-10T08:39:53.543Z,19.37
2023-04-10T08:42:19.968Z,18.71
2023-04-10T08:44:49.583Z,18.62
2023-04-10T08:47:21.128Z,18.46
2023-04-10T08:49:57.831Z,19.41
2023-04-10T08:52:31.502Z,19.28
2023-04-10T08:55:00.241Z,19.52
2023-04-10T08:57:27.975Z,19.96
2023-04-10T08:59:54.558Z,18.93
2023-04-10T09:02:22.185Z,17.88
2023-04-10T09:04:51.591Z,18.70
2023-04-10T09:07:18.348Z,18.51
2023-04-10T09:09:45.261Z,19.00
2023-04-10T09:12:14.037Z,19.28
2023-04-10T09:14:41.381Z,18.98
2023-04-10T09:17:11.392Z,18.62
2023-04-10T09:19:37.930Z,18.20
2023-04-10T09:22:04.351Z,19.05
2023-04-10T09:24:30.821Z,19.13
2023-04-10T09:26:57.229Z,19.24
2023-04-10T09:29:25.702Z,18.86
2023-04-10T09:31:52.119Z,18.75
2023-04-10T09:34:22.810Z,18.88
2023-04-10T09:36:57.970Z,19.18
2023-04-10T09:39:36.048Z,19.11
2023-04-10T09:42:02.815Z,19.06
2023-04-10T09:44:32.114Z,18.24
2023-04-10T09:46:59.934Z,18.87
2023-04-10T09:49:26.752Z,19.19
2023-04-10T09:51:53.265Z,19.70
2023-04-10T09:54:35.922Z,18.69
2023-04-10T09:57:03.828Z,18.76
2023-04-10T09:59:30.381Z,18.81
2023-04-10T10:01:57.010Z,19.36
2023-04-10T10:04:24.941Z,19.74
2023-04-10T10:06:51.603Z,18.45
2023-04-10T10:09:18.184Z,19.01
2023-04-10T10:11:44.626Z,19.72
2023-04-10T10:14:18.617Z,19.33
2023-04-10T10:16:52.522Z,18.94
2023-04-10T10:19:28.706Z,19.54
2023-04-10T10:21:56.026Z,19.23
2023-04-10T10:24:23.952Z,18.65
2023-04-10T10:26:51.469Z,18.62
2023-04-10T10:29:19.122Z,18.35
2023-04-10T10:31:47.027Z,17.74
2023-04-10T10:36:43.194Z,18.33
2023-04-10T10:39:12.687Z,18.49
2023-04-10T10:41:49.594Z,18.45
2023-04-10T10:44:34.706Z,18.58
2023-04-10T10:47:17.929Z,18.47
2023-04-10T10:49:54.412Z,18.32
2023-04-10T10:52:44.269Z,18.36
2023-04-10T10:55:22.781Z,18.12
2023-04-10T10:57:53.988Z,18.14
2023-04-10T11:00:21.889Z,18.30
2023-04-10T11:03:13.276Z,17.77
2023-04-10T11:05:57.339Z,18.49
2023-04-10T11:08:35.806Z,18.80
2023-04-10T11:11:05.645Z,18.31
2023-04-10T11:13:36.823Z,18.20
2023-04-10T11:16:05.230Z,18.80
2023-04-10T11:19:13.375Z,18.57
2023-04-10T11:22:01.679Z,18.84
2023-04-10T11:24:29.142Z,19.20
2023-04-10T11:26:56.177Z,18.89
2023-04-10T11:29:28.602Z,19.13
2023-04-10T11:32:05.834Z,19.27
2023-04-10T11:34:33.235Z,19.63
2023-04-10T11:37:02.906Z,19.97
2023-04-10T11:39:31.392Z,19.45
2023-04-10T11:41:57.949Z,20.07
2023-04-10T11:44:39.478Z,19.91
2023-04-10T11:47:06.650Z,19.65
2023-04-10T11:49:34.590Z,19.62
2023-04-10T11:52:01.427Z,19.41
2023-04-10T11:54:29.412Z,19.98
2023-04-10T11:57:07.123Z,20.19
2023-04-10T11:59:34.465Z,19.74
2023-04-10T12:02:19.206Z,19.46
2023-04-10T12:04:46.007Z,19.64
2023-04-10T12:07:12.544Z,19.29
2023-04-10T12:09:39.022Z,19.61
2023-04-10T12:12:07.527Z,20.52
2023-04-10T12:14:34.047Z,19.88
2023-04-10T12:17:02.194Z,20.25
2023-04-10T12:19:29.277Z,20.44
2023-04-10T12:21:57.432Z,20.15
2023-04-10T12:24:46.038Z,20.08
2023-04-10T12:27:20.343Z,20.11
2023-04-10T12:29:47.871Z,19.49
2023-04-10T12:32:14.790Z,19.54
2023-04-10T12:34:41.566Z,19.89
2023-04-10T12:37:09.907Z,19.65
2023-04-10T12:39:36.454Z,20.17
2023-04-10T12:42:23.038Z,19.97
2023-04-10T12:45:01.616Z,20.39
2023-04-10T12:47:29.521Z,20.19
2023-04-10T12:50:06.440Z,20.13
2023-04-10T12:52:33.212Z,20.40
2023-04-10T12:55:19.937Z,20.32
2023-04-10T12:57:47.965Z,20.48
2023-04-10T13:00:17.062Z,20.14
2023-04-10T13:02:44.391Z,20.53
2023-04-10T13:05:11.423Z,20.08
2023-04-10T13:07:38.396Z,20.66
2023-04-10T13:10:07.892Z,20.79
2023-04-10T13:12:36.122Z,20.48
2023-04-10T13:15:02.937Z,20.92
2023-04-10T13:17:29.575Z,20.86
2023-04-10T13:19:56.229Z,20.41
2023-04-10T13:22:22.801Z,20.81
2023-04-10T13:24:49.320Z,20.69
2023-04-10T13:27:15.949Z,19.86
2023-04-10T13:29:43.175Z,20.20
2023-04-10T13:32:10.057Z,19.68
2023-04-10T13:34:36.580Z,20.55
2023-04-10T13:37:03.182Z,20.10
2023-04-10T13:39:31.045Z,20.21
2023-04-10T13:41:58.934Z,19.66
2023-04-10T13:44:25.411Z,19.97
2023-04-10T13:46:52.265Z,19.80
2023-04-10T13:49:20.326Z,20.05
2023-04-10T13:51:47.335Z,20.07
2023-04-10T13:54:16.807Z,19.84
2023-04-10T13:56:44.595Z,19.71
2023-04-10T13:59:11.157Z,19.87
2023-04-10T14:01:37.655Z,19.48
2023-04-10T14:04:04.182Z,19.55
2023-04-10T14:06:31.600Z,19.74
2023-04-10T14:08:58.055Z,19.93
2023-04-10T14:11:25.279Z,19.94
2023-04-10T14:13:51.820Z,19.81
2023-04-10T14:16:18.341Z,19.51
2023-04-10T14:18:44.870Z,20.19
2023-04-10T14:21:11.401Z,20.38
2023-04-10T14:23:37.860Z,20.49
2023-04-10T14:26:07.272Z,20.46
2023-04-10T14:28:33.820Z,20.02
2023-04-10T14:31:00.904Z,20.16
2023-04-10T14:33:27.392Z,20.35
2023-04-10T14:35:54.294Z,20.79
2023-04-10T14:38:20.781Z,20.73
2023-04-10T14:40:49.936Z,20.46
2023-04-10T14:43:17.156Z,20.90
2023-04-10T14:45:43.706Z,20.12
2023-04-10T14:48:11.135Z,20.05
2023-04-10T14:50:37.748Z,20.06
2023-04-10T14:53:06.045Z,19.96
2023-04-10T14:55:32.532Z,20.79
2023-04-10T14:57:59.110Z,20.32
2023-04-10T15:00:26.318Z,20.08
2023-04-10T15:02:52.978Z,20.75
2023-04-10T15:05:19.670Z,20.46
2023-04-10T15:07:46.161Z,20.62
2023-04-10T15:10:12.682Z,20.35
2023-04-10T15:12:39.221Z,20.64
2023-04-10T15:15:06.999Z,20.56
2023-04-10T15:17:33.651Z,20.49
2023-04-10T15:20:00.359Z,20.48
2023-04-10T15:22:27.307Z,20.38
2023-04-10T15:24:53.771Z,20.65
2023-04-10T15:27:23.081Z,20.21
2023-04-10T15:29:49.815Z,20.03
2023-04-10T15:32:16.352Z,20.53
2023-04-10T15:34:44.076Z,20.28
2023-04-10T15:37:10.560Z,20.43
2023-04-10T15:39:37.213Z,20.29
2023-04-10T15:42:05.319Z,20.20
2023-04-10T15:44:32.049Z,20.77
2023-04-10T15:46:59.366Z,20.32
2023-04-10T15:49:36.264Z,20.33
2023-04-10T15:52:08.234Z,20.23
2023-04-10T15:54:35.139Z,20.19
2023-04-10T15:57:02.247Z,20.06
2023-04-10T15:59:28.936Z,20.45
2023-04-10T16:01:55.586Z,20.03
2023-04-10T16:04:22.326Z,19.86
2023-04-10T16:06:49.057Z,20.21
2023-04-10T16:09:25.342Z,20.04
2023-04-10T16:11:53.692Z,19.77
2023-04-10T16:14:20.622Z,20.09
2023-04-10T16:16:47.099Z,19.67
2023-04-10T16:19:13.601Z,20.00
2023-04-10T16:21:40.229Z,19.93
2023-04-10T16:24:07.005Z,20.23
2023-04-10T16:26:33.462Z,20.16
2023-04-10T16:28:59.850Z,20.12
2023-04-10T16:31:26.393Z,19.98
2023-04-10T16:33:52.976Z,20.32
2023-04-10T16:36:19.528Z,19.82
2023-04-10T16:38:49.480Z,19.98
2023-04-10T16:41:20.665Z,19.76
2023-04-10T16:43:47.383Z,19.96
2023-04-10T16:46:14.016Z,19.73
2023-04-10T16:48:40.485Z,19.71
2023-04-10T16:51:08.780Z,19.88
2023-04-10T16:53:36.126Z,19.84
2023-04-10T16:56:05.055Z,19.78
2023-04-10T16:58:36.795Z,19.70
2023-04-10T17:01:34.170Z,19.82
2023-04-10T17:04:00.859Z,20.20
2023-04-10T17:06:27.355Z,19.77
2023-04-10T17:08:54.188Z,19.81
2023-04-10T17:11:20.764Z,19.89
2023-04-10T17:13:47.226Z,19.36
2023-04-10T17:16:14.066Z,19.85
2023-04-10T17:18:40.628Z,19.53
2023-04-10T17:21:11.166Z,19.54
2023-04-10T17:23:37.830Z,19.67
2023-04-10T17:26:05.762Z,19.31
2023-04-10T17:28:33.778Z,19.35
2023-04-10T17:31:00.781Z,19.38
2023-04-10T17:33:28.515Z,19.65
2023-04-10T17:35:55.581Z,19.27
2023-04-10T17:38:22.018Z,19.51
2023-04-10T17:40:48.415Z,19.20
2023-04-10T17:43:14.865Z,18.82
2023-04-10T17:45:41.391Z,18.73
2023-04-10T17:48:10.828Z,18.91
2023-04-10T17:50:37.282Z,19.02
2023-04-10T17:53:03.770Z,19.11
2023-04-10T17:55:30.490Z,18.98
2023-04-10T17:57:57.863Z,19.02
2023-04-10T18:00:24.436Z,18.86
2023-04-10T18:02:52.929Z,18.70
2023-04-10T18:05:19.440Z,18.95
2023-04-10T18:07:45.927Z,19.04
2023-04-10T18:10:12.471Z,18.48
2023-04-10T18:12:40.357Z,18.22
2023-04-10T18:15:07.609Z,18.67
2023-04-10T18:17:34.340Z,18.94
2023-04-10T18:20:00.783Z,18.72
2023-04-10T18:22:28.704Z,18.93
2023-04-10T18:24:55.196Z,18.20
2023-04-10T18:27:21.703Z,18.24
2023-04-10T18:29:48.147Z,18.30
2023-04-10T18:32:14.543Z,17.88
2023-04-10T18:34:40.958Z,17.71
2023-04-10T18:37:09.741Z,17.90
2023-04-10T18:39:38.067Z,17.93
2023-04-10T18:42:07.289Z,17.63
2023-04-10T18:44:34.861Z,17.40
2023-04-10T18:47:05.124Z,17.63
2023-04-10T18:49:32.156Z,17.70
2023-04-10T18:51:58.692Z,17.71
2023-04-10T18:54:27.082Z,17.41
2023-04-10T18:56:53.644Z,17.48
2023-04-10T18:59:20.207Z,17.30
2023-04-10T19:01:46.797Z,17.16
2023-04-10T19:04:13.389Z,17.56
2023-04-10T19:06:40.976Z,17.42
2023-04-10T19:09:10.340Z,17.47
2023-04-10T19:11:37.077Z,17.56
2023-04-10T19:14:03.593Z,17.51
2023-04-10T19:16:30.396Z,17.57
2023-04-10T19:18:57.212Z,17.31
2023-04-10T19:21:23.895Z,17.57
2023-04-10T19:23:50.371Z,17.38
2023-04-10T19:26:19.530Z,17.65
2023-04-10T19:28:46.392Z,17.91
2023-04-10T19:31:13.172Z,17.94
2023-04-10T19:33:39.785Z,17.99
2023-04-10T19:36:08.362Z,17.68
2023-04-10T19:38:35.260Z,17.40
2023-04-10T19:41:01.701Z,17.89
2023-04-10T19:43:28.202Z,17.88
2023-04-10T19:45:55.126Z,18.01
2023-04-10T19:48:21.548Z,17.95
2023-04-10T19:50:48.000Z,17.97
2023-04-10T19:53:15.585Z,17.98
2023-04-10T19:55:44.232Z,17.71
2023-04-10T19:58:20.713Z,17.75
2023-04-10T20:01:02.567Z,17.86
2023-04-10T20:03:29.158Z,17.49
2023-04-10T20:05:56.203Z,17.55
2023-04-10T20:08:22.715Z,17.77
2023-04-10T20:10:49.201Z,17.55
2023-04-10T20:13:15.880Z,17.48
2023-04-10T20:15:43.168Z,17.77
2023-04-10T20:18:09.621Z,17.14
2023-04-10T20:20:36.031Z,17.55
2023-04-10T20:23:02.407Z,17.68
2023-04-10T20:25:28.861Z,17.75
2023-04-10T20:27:55.287Z,17.21
2023-04-10T20:30:21.855Z,17.29
2023-04-10T20:32:48.267Z,17.30
2023-04-10T20:35:14.701Z,16.87
2023-04-10T20:37:41.110Z,16.88
2023-04-10T20:40:08.366Z,16.71
2023-04-10T20:42:34.817Z,16.75
2023-04-10T20:45:01.236Z,16.87
2023-04-10T20:47:28.658Z,17.04
2023-04-10T20:49:55.271Z,16.63
2023-04-10T20:52:21.740Z,16.79
2023-04-10T20:54:48.248Z,17.20
2023-04-10T20:57:14.658Z,17.27
2023-04-10T20:59:41.164Z,17.55
2023-04-10T21:02:07.779Z,17.18
2023-04-10T21:04:34.368Z,17.08
2023-04-10T21:07:00.812Z,17.35
2023-04-10T21:09:27.223Z,16.86
2023-04-10T21:11:53.627Z,17.16
2023-04-10T21:14:20.114Z,17.25
2023-04-10T21:16:46.609Z,16.56
2023-04-10T21:19:13.483Z,16.94
2023-04-10T21:21:39.907Z,16.95
2023-04-10T21:24:06.351Z,16.69
2023-04-10T21:26:32.813Z,16.89
2023-04-10T21:28:59.228Z,16.93
2023-04-10T21:31:25.720Z,17.29
2023-04-10T21:33:52.253Z,17.21
2023-04-10T21:36:18.719Z,17.23
2023-04-10T21:38:45.257Z,17.18
2023-04-10T21:41:11.749Z,17.48
2023-04-10T21:43:39.686Z,17.63
2023-04-10T21:46:06.347Z,16.82
2023-04-10T21:48:32.901Z,17.10
2023-04-10T21:50:59.477Z,17.20
2023-04-10T21:53:25.937Z,17.40
2023-04-10T21:55:52.457Z,17.17
2023-04-10T21:58:18.885Z,17.41
2023-04-10T22:00:47.249Z,17.56
2023-04-10T22:03:19.925Z,17.50
2023-04-10T22:05:47.781Z,17.67
2023-04-10T22:08:14.969Z,17.73
2023-04-10T22:10:41.400Z,17.94
2023-04-10T22:13:10.221Z,17.79
2023-04-10T22:15:36.884Z,17.77
2023-04-10T22:18:03.462Z,17.62
2023-04-10T22:20:29.976Z,17.54
2023-04-10T22:22:56.447Z,17.77
2023-04-10T22:25:22.892Z,17.17
2023-04-10T22:27:49.468Z,16.48
2023-04-10T22:30:15.996Z,16.24
2023-04-10T22:32:42.436Z,16.83
2023-04-10T22:35:08.953Z,16.86
2023-04-10T22:37:35.483Z,16.93
2023-04-10T22:40:02.021Z,16.71
2023-04-10T22:42:31.189Z,16.85
2023-04-10T22:44:58.379Z,16.52
2023-04-10T22:47:24.838Z,16.66
2023-04-10T22:49:51.328Z,17.19
2023-04-10T22:52:17.745Z,16.54
2023-04-10T22:54:44.191Z,16.97
2023-04-10T22:57:10.930Z,17.50
2023-04-10T22:59:37.883Z,17.31
2023-04-10T23:02:04.616Z,17.09
2023-04-10T23:04:31.384Z,17.18
2023-04-10T23:06:57.905Z,16.93
2023-04-10T23:09:24.336Z,16.84
2023-04-10T23:11:50.782Z,16.79
2023-04-10T23:14:17.235Z,15.96
2023-04-10T23:16:46.923Z,16.35
2023-04-10T23:19:13.414Z,16.44
2023-04-10T23:21:39.823Z,15.73
2023-04-10T23:24:06.547Z,16.73
2023-04-10T23:26:33.267Z,15.97
2023-04-10T23:28:59.917Z,16.91
2023-04-10T23:31:26.373Z,16.93
2023-04-10T23:33:52.894Z,16.64
2023-04-10T23:36:19.320Z,16.64
2023-04-10T23:38:45.781Z,16.78
2023-04-10T23:41:12.192Z,16.21
2023-04-10T23:43:38.587Z,15.44
2023-04-10T23:46:05.271Z,16.25
2023-04-10T23:48:31.740Z,16.35
2023-04-10T23:51:08.671Z,16.48
2023-04-10T23:53:35.437Z,16.49
2023-04-10T23:56:01.994Z,15.85
2023-04-10T23:58:28.459Z,16.02
